AirNav   Everest Fuels
 
 637 users online  

AZ24 Phoenix Baptist Hospital Heliport
Phoenix, Arizona, USA

GOING TO PHOENIX?


FAA INFORMATION EFFECTIVE 07 NOVEMBER 2019

Location

FAA Identifier: AZ24
Lat/Long: 33-31-30.2800N 112-06-06.1700W
33-31.504667N 112-06.102833W
33.5250778,-112.1017139
(estimated)
Elevation: 1174 ft. / 358 m (estimated)
Variation: 13E (1985)
From city: 2 miles N of PHOENIX, AZ
Time zone: UTC -7 (year round; does not observe DST)
Zip code: 85015

Heliport Operations

Heliport use: Private use, MEDICAL.
Activation date: 04/1980
Control tower: no
ARTCC: ALBUQUERQUE CENTER
FSS: PRESCOTT FLIGHT SERVICE STATION
Attendance: UNATNDD
Wind indicator: yes
Segmented circle: no

Heliport Communications

WX ASOS at PHX (7 nm SE): PHONE 602-231-8557
WX AWOS-3 at GEU (10 nm W): 119.425 (623-877-8609)
WX ASOS at DVT (10 nm N): 126.5 (623-587-7764)
WX ASOS at SDL (11 nm NE): PHONE 480-483-3049
WX ASOS at LUF (14 nm W): 267.4 (623-877-8609)
WX ASOS at FFZ (19 nm E): PHONE 480-641-4111

Nearby radio navigation aids

VOR radial/distance  VOR name  Freq  Var
PXRr298/8.6PHOENIX VORTAC115.6012E
IWAr288/26.2WILLIE VORTAC113.3013E
BXKr069/36.4BUCKEYE VORTAC110.6014E
TFDr334/39.6STANFIELD VORTAC114.8012E

 
NDB name  Hdg/Dist  Freq  Var  ID
CHANDLER305/21.440712ECHD -.-. .... -..

Heliport Services

Runway Information

Helipad H1

Dimensions: 60 x 40 ft. / 18 x 12 m
Surface: concrete
Latitude: 33-31.504667N
Longitude: 112-06.102833W
Elevation: 1174.0 ft.
Traffic pattern: leftleft

Heliport Ownership and Management from official FAA records

Ownership: Privately-owned
Owner: VHS OF PHOENIX, INC.
D/B/A ABRAZO CENTRAL CAMPUS, 2000 W. BETHANY HOME RD
PHOENIX, AZ 85015
Phone 602-249-0212
Manager: DAVID SAMPLES - DIR OF FACILITIES
2000 W. BETHANY HOME RD.
PHOENIX, AZ 85015
Phone 602-246-5713

Additional Remarks

FOR CD CTC PHOENIX APCH AT 602-306-2565.

Instrument Procedures

There are no published instrument procedures at AZ24.

Some nearby airports with instrument procedures:

KPHX - Phoenix Sky Harbor International Airport (7 nm SE)
KGEU - Glendale Municipal Airport (10 nm W)
KDVT - Phoenix Deer Valley Airport (10 nm N)
KSDL - Scottsdale Airport (11 nm NE)
KLUF - Luke Air Force Base (14 nm W)
KGYR - Phoenix Goodyear Airport (15 nm SW)
P19 - Stellar Airpark (16 nm SE)
KFFZ - Falcon Field Airport (19 nm E)
 
Loc | Ops | Rwys | IFR | FBO | Links
Com | Nav | Svcs | Stats | Notes
Area around AZ24 (Phoenix Baptist Hospital Heliport)
 
Road maps at: MapQuest Bing Google
 
Aerial photo
No photo
 
Sectional chart

 
Airport distance calculator
Flying to Phoenix Baptist Hospital Heliport? Find the distance to fly.

From to AZ24

Sunrise and sunset
Times for 18-Nov-2019
 Local
(UTC-7)
 Zulu
(UTC)
Morning civil twilight06:3713:37
Sunrise07:0414:04
Sunset17:2300:23
Evening civil twilight17:5000:50

Current date and time
Zulu (UTC)  19-Nov-2019 05:02:25
Local (UTC-7)  18-Nov-2019 22:02:25
 
METAR
KPHX 
6nm SE 
190451Z 10006KT 10SM BKN220 19/01 A2986 RMK AO2 SLP100 T01940011
KDVT 
10nm N 
190453Z AUTO 03010KT 10SM CLR 18/M04 A2989 RMK AO2 SLP107 T01831044
KGEU 
10nm W 
182251Z 07003KT 10SM SKC 28/M02 A2987
KSDL 
11nm NE 
190453Z AUTO 02004KT 10SM CLR 18/M03 A2990 RMK AO2 SLP110 T01831028
KLUF 
13nm W 
190458Z AUTO 00000KT 10SM CLR 16/00 A2986 RMK AO2 SLP106 T01611002
KGYR 
15nm SW 
190347Z 00000KT 10SM SCT200 BKN250 18/01 A2988 RMK LAST
KFFZ 
20nm E 
190454Z AUTO 00000KT 10SM CLR 18/M02 A2989 RMK AO2 SLP105 T01781017
TAF
KPHX 
6nm SE 
190243Z 1903/2006 VRB03KT P6SM BKN200 FM190500 10005KT P6SM BKN200 FM191200 12005KT P6SM BKN100 FM192100 12005KT P6SM VCSH SCT060 OVC090 FM200200 12010KT P6SM SHRA SCT040 OVC060
KDVT 
10nm N 
181723Z 1818/1918 VRB03KT P6SM FEW250 FM182000 22004KT P6SM SCT250 FM190300 04004KT P6SM BKN250
KSDL 
11nm NE 
181723Z 1818/1918 VRB03KT P6SM FEW250 FM182100 25004KT P6SM SCT250 FM190200 VRB03KT P6SM BKN250
KLUF 
13nm W 
190400Z 1904/2010 VRB06KT 9999 SCT250 QNH2960INS BECMG 1906/1907 VRB06KT 9999 BKN220 522253 QNH2988INS BECMG 1919/1920 VRB06KT 9999 VCSH BKN090 QNH2978INS BECMG 2004/2005 13008KT 8000 -SHRA VCTS OVC050CB QNH2965INS TEMPO 2005/2007 14012G18KT BECMG 2008/2009 VRB06KT 9999 NSW BKN050 QNH2962INS TX26/1923Z TN14/1913Z
NOTAMs
Click for the latest NOTAMs
NOTAMs are issued by the DoD/FAA and will open in a separate window not controlled by AirNav.

 

 
 

Would you like to see your business listed on this page?

 If your business provides an interesting product or service to pilots, flight crews, aircraft, or users of the Phoenix Baptist Hospital Heliport, you should consider listing it here.  To start the listing process, click on the button below
 
Add a business
 

Other Pages about Phoenix Baptist Hospital Heliport

Update a link
 
Copyright © AirNav, LLC. All rights reserved. Privacy Policy  Contact